createdAt,value
2023-02-08T00:01:25.226Z,10.33
2023-02-08T00:03:52.025Z,9.87
2023-02-08T00:06:18.355Z,10.47
2023-02-08T00:08:45.077Z,9.63
2023-02-08T00:11:12.151Z,10.70
2023-02-08T00:13:41.642Z,9.43
2023-02-08T00:16:08.498Z,10.20
2023-02-08T00:18:34.971Z,10.53
2023-02-08T00:21:01.492Z,10.07
2023-02-08T00:23:27.878Z,8.63
2023-02-08T00:25:54.162Z,9.03
2023-02-08T00:28:20.789Z,9.67
2023-02-08T00:30:47.249Z,9.43
2023-02-08T00:33:13.917Z,9.60
2023-02-08T00:35:42.221Z,9.53
2023-02-08T00:38:08.576Z,9.50
2023-02-08T00:40:34.994Z,9.97
2023-02-08T00:43:02.789Z,10.50
2023-02-08T00:45:29.295Z,9.13
2023-02-08T00:47:55.710Z,9.13
2023-02-08T00:50:22.137Z,9.07
2023-02-08T00:52:48.621Z,9.20
2023-02-08T00:55:15.045Z,9.83
2023-02-08T00:57:41.364Z,10.17
2023-02-08T01:00:09.110Z,9.37
2023-02-08T01:02:35.410Z,10.23
2023-02-08T01:05:01.728Z,8.83
2023-02-08T01:07:28.228Z,9.33
2023-02-08T01:09:54.619Z,8.33
2023-02-08T01:12:20.902Z,9.87
2023-02-08T01:14:47.252Z,9.97
2023-02-08T01:17:13.557Z,9.27
2023-02-08T01:19:42.530Z,8.87
2023-02-08T01:22:09.000Z,8.90
2023-02-08T01:24:35.328Z,8.73
2023-02-08T01:27:01.620Z,9.57
2023-02-08T01:29:28.058Z,8.17
2023-02-08T01:31:54.377Z,9.40
2023-02-08T01:34:20.781Z,9.30
2023-02-08T01:36:47.112Z,8.70
2023-02-08T01:39:13.555Z,8.70
2023-02-08T01:41:43.508Z,9.00
2023-02-08T01:44:12.602Z,9.17
2023-02-08T01:46:41.420Z,8.60
2023-02-08T01:49:23.064Z,8.90
2023-02-08T01:51:55.701Z,10.30
2023-02-08T01:54:23.904Z,9.50
2023-02-08T01:56:50.899Z,9.43
2023-02-08T01:59:19.874Z,9.47
2023-02-08T02:01:46.849Z,9.43
2023-02-08T02:04:13.287Z,10.43
2023-02-08T02:06:41.515Z,10.13
2023-02-08T02:09:16.612Z,10.07
2023-02-08T02:11:43.385Z,10.13
2023-02-08T02:14:10.129Z,10.47
2023-02-08T02:16:36.691Z,9.63
2023-02-08T02:19:05.220Z,10.17
2023-02-08T02:21:31.625Z,9.23
2023-02-08T02:24:24.273Z,9.97
2023-02-08T02:26:58.499Z,10.53
2023-02-08T02:29:43.594Z,9.27
2023-02-08T02:32:19.895Z,10.27
2023-02-08T02:34:52.207Z,10.97
2023-02-08T02:37:18.496Z,9.30
2023-02-08T02:39:45.831Z,10.20
2023-02-08T02:42:34.312Z,9.73
2023-02-08T02:45:03.529Z,8.77
2023-02-08T02:47:42.187Z,10.93
2023-02-08T02:50:14.706Z,9.90
2023-02-08T02:52:51.519Z,10.60
2023-02-08T02:55:20.995Z,9.67
2023-02-08T02:57:49.829Z,9.73
2023-02-08T03:00:21.468Z,9.03
2023-02-08T03:02:47.768Z,9.97
2023-02-08T03:05:14.101Z,11.03
2023-02-08T03:07:40.365Z,10.40
2023-02-08T03:10:15.954Z,10.37
2023-02-08T03:13:08.553Z,10.50
2023-02-08T03:15:34.901Z,9.57
2023-02-08T03:18:21.069Z,9.67
2023-02-08T03:20:47.335Z,10.27
2023-02-08T03:23:13.607Z,10.17
2023-02-08T03:25:46.910Z,10.03
2023-02-08T03:28:24.021Z,9.53
2023-02-08T03:31:03.480Z,9.77
2023-02-08T03:33:33.792Z,10.53
2023-02-08T03:36:04.540Z,9.73
2023-02-08T03:38:36.473Z,9.83
2023-02-08T03:41:04.375Z,9.97
2023-02-08T03:43:37.068Z,9.90
2023-02-08T03:46:16.351Z,9.93
2023-02-08T03:48:45.270Z,9.63
2023-02-08T03:51:12.161Z,9.97
2023-02-08T03:53:40.488Z,9.53
2023-02-08T03:56:09.972Z,9.43
2023-02-08T03:58:40.733Z,10.37
2023-02-08T04:01:11.688Z,9.13
2023-02-08T04:03:38.501Z,9.77
2023-02-08T04:06:05.079Z,9.37
2023-02-08T04:08:31.424Z,10.03
2023-02-08T04:10:57.981Z,8.80
2023-02-08T04:13:24.254Z,9.10
2023-02-08T04:15:50.571Z,9.87
2023-02-08T04:18:16.885Z,10.70
2023-02-08T04:20:43.220Z,9.10
2023-02-08T04:23:09.547Z,10.60
2023-02-08T04:25:35.928Z,10.37
2023-02-08T04:28:02.282Z,9.00
2023-02-08T04:30:28.609Z,10.37
2023-02-08T04:32:55.013Z,9.23
2023-02-08T04:35:21.336Z,9.83
2023-02-08T04:37:47.748Z,9.87
2023-02-08T04:40:14.067Z,10.33
2023-02-08T04:42:40.450Z,9.50
2023-02-08T04:45:06.975Z,10.07
2023-02-08T04:47:33.293Z,9.90
2023-02-08T04:49:59.698Z,10.73
2023-02-08T04:52:28.753Z,10.50
2023-02-08T04:54:55.069Z,9.27
2023-02-08T04:57:21.440Z,11.20
2023-02-08T04:59:47.868Z,10.13
2023-02-08T05:02:14.275Z,10.13
2023-02-08T05:04:40.573Z,10.50
2023-02-08T05:07:06.953Z,10.23
2023-02-08T05:09:33.267Z,10.13
2023-02-08T05:11:59.569Z,10.20
2023-02-08T05:14:26.357Z,10.33
2023-02-08T05:16:52.779Z,9.13
2023-02-08T05:19:19.091Z,10.20
2023-02-08T05:21:45.446Z,9.20
2023-02-08T05:24:12.435Z,10.17
2023-02-08T05:26:39.641Z,9.33
2023-02-08T05:29:06.102Z,10.37
2023-02-08T05:31:32.453Z,9.70
2023-02-08T05:33:59.025Z,10.37
2023-02-08T05:36:25.352Z,9.90
2023-02-08T05:38:53.464Z,9.47
2023-02-08T05:41:19.800Z,9.97
2023-02-08T05:43:46.229Z,9.60
2023-02-08T05:46:12.812Z,9.97
2023-02-08T05:48:39.294Z,9.47
2023-02-08T05:51:05.613Z,10.40
2023-02-08T05:53:32.090Z,10.43
2023-02-08T05:55:58.556Z,9.87
2023-02-08T05:58:25.240Z,10.03
2023-02-08T06:00:51.672Z,9.90
2023-02-08T06:03:18.116Z,9.23
2023-02-08T06:05:44.825Z,8.83
2023-02-08T06:08:11.312Z,10.30
2023-02-08T06:10:37.705Z,9.43
2023-02-08T06:13:04.518Z,8.87
2023-02-08T06:15:31.304Z,9.30
2023-02-08T06:17:57.619Z,10.20
2023-02-08T06:20:24.020Z,10.33
2023-02-08T06:22:50.348Z,8.77
2023-02-08T06:25:16.835Z,8.87
2023-02-08T06:27:43.150Z,8.57
2023-02-08T06:30:09.845Z,8.77
2023-02-08T06:32:36.214Z,9.00
2023-02-08T06:35:02.912Z,7.93
2023-02-08T06:37:29.242Z,9.07
2023-02-08T06:39:55.556Z,9.13
2023-02-08T06:42:21.912Z,9.13
2023-02-08T06:44:55.173Z,8.47
2023-02-08T06:47:22.388Z,9.27
2023-02-08T06:49:48.668Z,8.60
2023-02-08T06:52:14.969Z,8.53
2023-02-08T06:54:41.288Z,9.27
2023-02-08T06:57:08.373Z,8.90
2023-02-08T06:59:34.865Z,9.07
2023-02-08T07:02:01.498Z,9.40
2023-02-08T07:04:27.989Z,8.40
2023-02-08T07:06:54.409Z,8.57
2023-02-08T07:09:21.783Z,7.70
2023-02-08T07:11:48.227Z,9.67
2023-02-08T07:14:15.610Z,9.53
2023-02-08T07:16:42.035Z,8.90
2023-02-08T07:19:08.426Z,8.67
2023-02-08T07:21:35.775Z,9.30
2023-02-08T07:24:02.091Z,7.90
2023-02-08T07:26:30.463Z,8.43
2023-02-08T07:28:57.888Z,8.83
2023-02-08T07:31:24.314Z,8.60
2023-02-08T07:33:50.876Z,9.10
2023-02-08T07:36:17.271Z,9.77
2023-02-08T07:38:43.604Z,8.50
2023-02-08T07:41:11.992Z,9.60
2023-02-08T07:43:40.186Z,9.07
2023-02-08T07:46:10.694Z,8.57
2023-02-08T07:48:39.810Z,8.30
2023-02-08T07:51:06.496Z,8.93
2023-02-08T07:53:33.901Z,9.07
2023-02-08T07:56:01.387Z,8.60
2023-02-08T07:58:28.015Z,8.00
2023-02-08T08:00:57.258Z,8.70
2023-02-08T08:03:24.650Z,8.53
2023-02-08T08:05:53.531Z,8.47
2023-02-08T08:08:21.034Z,8.10
2023-02-08T08:10:47.391Z,8.80
2023-02-08T08:13:13.884Z,9.27
2023-02-08T08:15:40.695Z,9.07
2023-02-08T08:18:07.657Z,8.73
2023-02-08T08:20:34.074Z,9.20
2023-02-08T08:23:00.527Z,9.40
2023-02-08T08:25:27.030Z,8.17
2023-02-08T08:27:53.643Z,9.17
2023-02-08T08:30:20.789Z,9.83
2023-02-08T08:32:47.231Z,9.23
2023-02-08T08:35:13.691Z,8.90
2023-02-08T08:37:40.265Z,8.63
2023-02-08T08:40:07.740Z,8.57
2023-02-08T08:42:36.220Z,9.50
2023-02-08T08:45:03.164Z,9.33
2023-02-08T08:47:29.756Z,9.27
2023-02-08T08:49:56.082Z,9.97
2023-02-08T08:52:22.609Z,9.33
2023-02-08T08:54:48.933Z,8.97
2023-02-08T08:57:15.598Z,8.77
2023-02-08T08:59:41.878Z,9.07
2023-02-08T09:02:10.287Z,8.87
2023-02-08T09:04:36.582Z,9.77
2023-02-08T09:07:02.997Z,9.33
2023-02-08T09:09:29.325Z,10.07
2023-02-08T09:11:55.612Z,10.37
2023-02-08T09:14:21.982Z,10.20
2023-02-08T09:16:49.155Z,10.37
2023-02-08T09:19:16.258Z,10.03
2023-02-08T09:21:43.206Z,9.07
2023-02-08T09:24:09.887Z,8.93
2023-02-08T09:26:36.438Z,9.37
2023-02-08T09:29:03.071Z,10.57
2023-02-08T09:31:31.050Z,8.97
2023-02-08T09:33:59.394Z,10.10
2023-02-08T09:36:26.884Z,9.80
2023-02-08T09:39:01.634Z,9.93
2023-02-08T09:41:53.997Z,10.80
2023-02-08T09:44:39.181Z,10.00
2023-02-08T09:47:20.756Z,9.57
2023-02-08T09:50:03.388Z,9.63
2023-02-08T09:52:35.162Z,9.67
2023-02-08T09:55:03.961Z,10.60
2023-02-08T09:57:33.164Z,10.03
2023-02-08T10:00:04.421Z,10.23
2023-02-08T10:02:34.219Z,9.23
2023-02-08T10:05:03.030Z,11.23
2023-02-08T10:07:30.180Z,10.30
2023-02-08T10:09:57.655Z,8.07
2023-02-08T10:12:29.926Z,10.33
2023-02-08T10:14:56.272Z,9.17
2023-02-08T10:17:44.901Z,9.17
2023-02-08T10:20:30.850Z,9.57
2023-02-08T10:23:01.389Z,10.17
2023-02-08T10:25:47.148Z,11.07
2023-02-08T10:28:19.869Z,9.50
2023-02-08T10:30:56.090Z,10.33
2023-02-08T10:33:40.857Z,8.53
2023-02-08T10:36:14.650Z,10.17
2023-02-08T10:38:46.714Z,10.70
2023-02-08T10:41:33.611Z,10.83
2023-02-08T10:44:20.741Z,9.80
2023-02-08T10:46:57.342Z,9.83
2023-02-08T10:49:44.834Z,9.97
2023-02-08T10:52:11.223Z,9.90
2023-02-08T10:54:37.594Z,9.70
2023-02-08T10:57:05.658Z,9.23
2023-02-08T10:59:35.598Z,9.80
2023-02-08T11:02:01.883Z,9.50
2023-02-08T11:04:28.323Z,8.50
2023-02-08T11:06:54.931Z,9.87
2023-02-08T11:09:22.730Z,8.30
2023-02-08T11:11:52.456Z,9.27
2023-02-08T11:14:46.206Z,9.13
2023-02-08T11:17:28.291Z,9.63
2023-02-08T11:19:55.090Z,9.23
2023-02-08T11:22:23.035Z,8.37
2023-02-08T11:25:00.425Z,10.00
2023-02-08T11:27:26.777Z,7.57
2023-02-08T11:30:13.042Z,8.80
2023-02-08T11:32:39.702Z,8.60
2023-02-08T11:35:26.349Z,7.90
2023-02-08T11:37:54.006Z,8.10
2023-02-08T11:40:32.220Z,8.20
2023-02-08T11:42:58.708Z,8.07
2023-02-08T11:45:27.684Z,9.00
2023-02-08T11:47:54.201Z,8.13
2023-02-08T11:50:40.882Z,7.40
2023-02-08T11:53:16.728Z,7.50
2023-02-08T11:55:44.521Z,8.47
2023-02-08T11:58:20.180Z,7.70
2023-02-08T12:01:01.838Z,8.57
2023-02-08T12:03:31.166Z,7.87
2023-02-08T12:06:15.939Z,8.47
2023-02-08T12:08:42.408Z,8.10
2023-02-08T12:11:08.804Z,7.33
2023-02-08T12:13:45.278Z,8.07
2023-02-08T12:16:17.096Z,8.43
2023-02-08T12:19:02.162Z,8.00
2023-02-08T12:21:40.788Z,8.60
2023-02-08T12:24:07.078Z,8.23
2023-02-08T12:26:37.380Z,8.17
2023-02-08T12:29:09.689Z,8.27
2023-02-08T12:31:51.096Z,8.33
2023-02-08T12:34:36.073Z,8.53
2023-02-08T12:37:36.491Z,7.87
2023-02-08T12:40:41.240Z,7.83
2023-02-08T12:43:08.759Z,7.73
2023-02-08T12:45:38.160Z,7.77
2023-02-08T12:48:05.145Z,7.53
2023-02-08T12:50:43.268Z,7.57
2023-02-08T12:53:19.400Z,7.10
2023-02-08T12:55:46.837Z,7.50
2023-02-08T12:58:26.556Z,7.13
2023-02-08T13:00:54.543Z,7.77
2023-02-08T13:03:23.707Z,7.97
2023-02-08T13:06:01.567Z,7.20
2023-02-08T13:08:28.978Z,7.90
2023-02-08T13:11:05.520Z,8.30
2023-02-08T13:13:39.282Z,7.70
2023-02-08T13:16:20.274Z,7.77
2023-02-08T13:19:06.556Z,8.67
2023-02-08T13:21:37.893Z,7.50
2023-02-08T13:24:06.649Z,7.40
2023-02-08T13:26:34.010Z,7.67
2023-02-08T13:29:02.472Z,7.07
2023-02-08T13:31:29.119Z,7.87
2023-02-08T13:34:08.028Z,7.93
2023-02-08T13:36:39.707Z,7.00
2023-02-08T13:39:08.615Z,7.07
2023-02-08T13:41:35.743Z,7.47
2023-02-08T13:44:06.763Z,7.50
2023-02-08T13:46:46.953Z,7.50
2023-02-08T13:49:32.271Z,7.77
2023-02-08T13:51:58.710Z,6.90
2023-02-08T13:54:25.263Z,6.90
2023-02-08T13:56:52.558Z,7.27
2023-02-08T13:59:41.330Z,7.47
2023-02-08T14:02:18.906Z,8.13
2023-02-08T14:04:46.616Z,6.80
2023-02-08T14:07:33.696Z,7.33
2023-02-08T14:10:04.638Z,6.80
2023-02-08T14:12:43.792Z,6.67
2023-02-08T14:15:12.882Z,6.50
2023-02-08T14:17:42.420Z,7.07
2023-02-08T14:20:17.559Z,6.53
2023-02-08T14:22:49.134Z,6.47
2023-02-08T14:25:21.090Z,6.87
2023-02-08T14:27:52.695Z,6.30
2023-02-08T14:30:18.981Z,6.27
2023-02-08T14:32:47.765Z,6.27
2023-02-08T14:35:26.474Z,6.70
2023-02-08T14:38:11.850Z,5.87
2023-02-08T14:40:47.829Z,5.80
2023-02-08T14:43:20.221Z,6.20
2023-02-08T14:45:47.742Z,6.37
2023-02-08T14:48:37.622Z,6.60
2023-02-08T14:51:04.012Z,5.53
2023-02-08T14:53:36.313Z,6.80
2023-02-08T14:56:07.142Z,6.17
2023-02-08T14:58:45.224Z,6.67
2023-02-08T15:01:18.683Z,5.47
2023-02-08T15:03:46.579Z,6.27
2023-02-08T15:06:31.780Z,6.00
2023-02-08T15:08:58.403Z,6.03
2023-02-08T15:11:26.816Z,6.43
2023-02-08T15:13:54.733Z,5.77
2023-02-08T15:16:21.284Z,6.27
2023-02-08T15:18:48.523Z,5.80
2023-02-08T15:21:19.399Z,6.50
2023-02-08T15:24:22.469Z,6.27
2023-02-08T15:26:52.978Z,7.07
2023-02-08T15:29:30.055Z,6.23
2023-02-08T15:32:02.213Z,5.80
2023-02-08T15:34:32.834Z,6.37
2023-02-08T15:36:59.841Z,5.90
2023-02-08T15:39:39.511Z,6.90
2023-02-08T15:42:06.325Z,7.23
2023-02-08T15:44:33.679Z,7.10
2023-02-08T15:47:02.002Z,6.47
2023-02-08T15:49:28.374Z,6.97
2023-02-08T15:51:56.999Z,6.20
2023-02-08T15:54:23.860Z,6.00
2023-02-08T15:56:57.537Z,6.43
2023-02-08T15:59:25.743Z,6.70
2023-02-08T16:01:53.168Z,6.37
2023-02-08T16:04:19.913Z,6.30
2023-02-08T16:06:50.112Z,6.43
2023-02-08T16:09:18.284Z,6.70
2023-02-08T16:11:46.459Z,6.40
2023-02-08T16:14:17.449Z,7.17
2023-02-08T16:16:45.619Z,6.70
2023-02-08T16:19:18.240Z,6.23
2023-02-08T16:21:44.693Z,6.13
2023-02-08T16:24:10.973Z,6.53
2023-02-08T16:26:41.757Z,6.83
2023-02-08T16:29:17.528Z,6.10
2023-02-08T16:31:45.661Z,6.40
2023-02-08T16:34:16.396Z,6.43
2023-02-08T16:36:44.422Z,6.97
2023-02-08T16:39:13.458Z,6.17
2023-02-08T16:42:09.590Z,6.70
2023-02-08T16:44:56.624Z,6.87
2023-02-08T16:47:28.105Z,6.90
2023-02-08T16:49:54.413Z,7.60
2023-02-08T16:52:20.703Z,6.83
2023-02-08T16:54:47.079Z,7.23
2023-02-08T16:57:13.404Z,6.87
2023-02-08T16:59:39.892Z,7.07
2023-02-08T17:02:10.470Z,6.80
2023-02-08T17:04:36.867Z,7.07
2023-02-08T17:07:03.223Z,7.63
2023-02-08T17:09:29.503Z,8.30
2023-02-08T17:11:55.785Z,8.03
2023-02-08T17:14:22.090Z,8.40
2023-02-08T17:16:48.434Z,7.13
2023-02-08T17:19:16.798Z,7.37
2023-02-08T17:21:43.324Z,7.57
2023-02-08T17:24:10.716Z,7.03
2023-02-08T17:26:38.972Z,7.07
2023-02-08T17:29:05.324Z,7.60
2023-02-08T17:31:32.343Z,7.23
2023-02-08T17:34:04.265Z,8.13
2023-02-08T17:36:31.765Z,8.27
2023-02-08T17:38:58.419Z,9.27
2023-02-08T17:41:24.734Z,8.10
2023-02-08T17:43:52.158Z,7.33
2023-02-08T17:46:20.252Z,7.70
2023-02-08T17:48:48.456Z,8.03
2023-02-08T17:51:19.602Z,7.40
2023-02-08T17:53:46.393Z,6.77
2023-02-08T17:56:14.086Z,6.80
2023-02-08T17:58:40.774Z,7.80
2023-02-08T18:01:08.635Z,7.33
2023-02-08T18:03:35.171Z,7.73
2023-02-08T18:06:01.986Z,7.30
2023-02-08T18:08:28.470Z,8.43
2023-02-08T18:10:55.840Z,7.23
2023-02-08T18:13:22.160Z,7.33
2023-02-08T18:15:48.758Z,7.40
2023-02-08T18:18:15.597Z,7.70
2023-02-08T18:20:45.197Z,7.90
2023-02-08T18:23:11.555Z,7.97
2023-02-08T18:25:37.989Z,7.87
2023-02-08T18:28:04.348Z,9.10
2023-02-08T18:30:31.104Z,8.63
2023-02-08T18:32:57.389Z,9.13
2023-02-08T18:35:23.750Z,9.07
2023-02-08T18:37:50.195Z,8.07
2023-02-08T18:40:17.308Z,9.07
2023-02-08T18:42:43.638Z,8.87
2023-02-08T18:45:10.070Z,8.47
2023-02-08T18:47:37.093Z,8.77
2023-02-08T18:50:03.722Z,8.37
2023-02-08T18:52:31.538Z,8.60
2023-02-08T18:54:58.126Z,9.23
2023-02-08T18:57:24.672Z,8.77
2023-02-08T18:59:52.913Z,8.67
2023-02-08T19:02:20.918Z,8.90
2023-02-08T19:04:47.473Z,8.73
2023-02-08T19:07:14.294Z,9.00
2023-02-08T19:09:40.985Z,9.20
2023-02-08T19:12:07.592Z,9.83
2023-02-08T19:14:34.430Z,8.20
2023-02-08T19:17:00.940Z,10.00
2023-02-08T19:19:27.308Z,10.50
2023-02-08T19:21:53.721Z,9.67
2023-02-08T19:24:20.137Z,10.03
2023-02-08T19:26:46.726Z,10.40
2023-02-08T19:29:14.816Z,11.23
2023-02-08T19:31:41.689Z,11.37
2023-02-08T19:34:08.462Z,11.10
2023-02-08T19:36:37.654Z,11.17
2023-02-08T19:39:05.142Z,10.97
2023-02-08T19:41:33.289Z,10.43
2023-02-08T19:44:00.121Z,11.57
2023-02-08T19:46:27.942Z,10.50
2023-02-08T19:48:55.585Z,10.27
2023-02-08T19:51:23.039Z,11.33
2023-02-08T19:53:49.361Z,10.43
2023-02-08T19:56:16.787Z,10.40
2023-02-08T19:58:43.603Z,10.17
2023-02-08T20:01:11.590Z,10.20
2023-02-08T20:03:38.338Z,10.37
2023-02-08T20:06:05.177Z,11.17
2023-02-08T20:08:31.772Z,10.90
2023-02-08T20:10:58.116Z,10.17
2023-02-08T20:13:24.457Z,10.93
2023-02-08T20:15:50.769Z,10.63
2023-02-08T20:18:17.240Z,11.17
2023-02-08T20:20:43.693Z,11.87
2023-02-08T20:23:21.999Z,11.00
2023-02-08T20:25:48.969Z,11.27
2023-02-08T20:28:15.289Z,10.70
2023-02-08T20:30:42.013Z,11.20
2023-02-08T20:33:08.380Z,11.40
2023-02-08T20:35:35.903Z,12.27
2023-02-08T20:38:02.261Z,11.03
2023-02-08T20:40:28.546Z,12.13
2023-02-08T20:42:54.931Z,13.07
2023-02-08T20:45:21.207Z,11.87
2023-02-08T20:47:47.910Z,12.40
2023-02-08T20:50:19.267Z,12.60
2023-02-08T20:52:48.990Z,14.63
2023-02-08T20:55:15.365Z,14.17
2023-02-08T20:57:41.757Z,12.60
2023-02-08T21:00:08.464Z,12.33
2023-02-08T21:02:35.852Z,11.43
2023-02-08T21:05:02.317Z,11.83
2023-02-08T21:07:28.613Z,10.20
2023-02-08T21:09:54.918Z,11.97
2023-02-08T21:12:21.498Z,11.67
2023-02-08T21:14:47.899Z,10.97
2023-02-08T21:17:14.314Z,10.93
2023-02-08T21:19:40.672Z,10.47
2023-02-08T21:22:07.021Z,10.80
2023-02-08T21:24:33.489Z,10.80
2023-02-08T21:26:59.943Z,10.87
2023-02-08T21:29:26.315Z,10.13
2023-02-08T21:31:54.303Z,10.47
2023-02-08T21:34:21.137Z,10.50
2023-02-08T21:36:47.656Z,10.47
2023-02-08T21:39:13.967Z,10.30
2023-02-08T21:41:40.277Z,10.20
2023-02-08T21:44:08.194Z,10.93
2023-02-08T21:46:35.033Z,10.90
2023-02-08T21:49:19.784Z,10.87
2023-02-08T21:52:05.413Z,9.97
2023-02-08T21:54:41.928Z,10.17
2023-02-08T21:57:21.799Z,10.07
2023-02-08T21:59:49.146Z,10.50
2023-02-08T22:02:16.783Z,10.80
2023-02-08T22:04:46.682Z,10.20
2023-02-08T22:07:13.723Z,9.63
2023-02-08T22:09:41.577Z,10.07
2023-02-08T22:12:12.520Z,9.73
2023-02-08T22:14:38.825Z,9.23
2023-02-08T22:17:05.186Z,10.00
2023-02-08T22:19:31.874Z,10.77
2023-02-08T22:21:58.288Z,10.30
2023-02-08T22:24:24.582Z,11.40
2023-02-08T22:26:50.899Z,9.83
2023-02-08T22:29:17.389Z,9.73
2023-02-08T22:31:43.894Z,9.87
2023-02-08T22:34:10.367Z,9.17
2023-02-08T22:36:36.691Z,8.97
2023-02-08T22:39:03.529Z,9.03
2023-02-08T22:41:29.855Z,8.77
2023-02-08T22:43:56.166Z,8.93
2023-02-08T22:46:22.603Z,9.83
2023-02-08T22:48:49.072Z,9.30
2023-02-08T22:51:17.174Z,9.23
2023-02-08T22:53:43.753Z,8.30
2023-02-08T22:56:10.144Z,8.90
2023-02-08T22:58:36.550Z,9.37
2023-02-08T23:01:03.020Z,9.23
2023-02-08T23:03:29.319Z,8.53
2023-02-08T23:05:56.602Z,7.93
2023-02-08T23:08:23.991Z,7.93
2023-02-08T23:10:57.463Z,7.60
2023-02-08T23:13:23.782Z,7.30
2023-02-08T23:15:50.102Z,7.90
2023-02-08T23:18:16.468Z,7.30
2023-02-08T23:20:42.963Z,7.63
2023-02-08T23:23:09.701Z,7.00
2023-02-08T23:25:38.839Z,8.20
2023-02-08T23:28:05.877Z,7.67
2023-02-08T23:30:32.200Z,7.17
2023-02-08T23:32:58.630Z,7.33
2023-02-08T23:35:25.341Z,7.40
2023-02-08T23:37:51.886Z,7.10
2023-02-08T23:40:18.390Z,6.67
2023-02-08T23:42:44.774Z,6.77
2023-02-08T23:45:11.383Z,7.33
2023-02-08T23:47:38.688Z,7.10
2023-02-08T23:50:05.909Z,6.47
2023-02-08T23:52:32.999Z,6.50
2023-02-08T23:54:59.319Z,7.40
2023-02-08T23:57:25.710Z,6.80
2023-02-08T23:59:52.097Z,6.80
